createdAt,value
2019-03-30T00:00:44.832Z,17.30
2019-03-30T00:01:44.802Z,19.40
2019-03-30T00:02:44.787Z,16.70
2019-03-30T00:03:44.781Z,16.90
2019-03-30T00:04:44.762Z,19.30
2019-03-30T00:05:44.770Z,15.20
2019-03-30T00:06:44.742Z,16.00
2019-03-30T00:07:44.731Z,15.00
2019-03-30T00:08:44.725Z,16.30
2019-03-30T00:09:44.716Z,15.60
2019-03-30T00:10:44.720Z,17.30
2019-03-30T00:11:44.689Z,18.70
2019-03-30T00:12:44.684Z,14.70
2019-03-30T00:13:44.665Z,17.40
2019-03-30T00:14:44.654Z,17.60
2019-03-30T00:15:44.656Z,18.40
2019-03-30T00:16:44.636Z,18.70
2019-03-30T00:17:44.620Z,19.80
2019-03-30T00:18:44.607Z,17.40
2019-03-30T00:19:44.603Z,17.60
2019-03-30T00:20:44.606Z,16.00
2019-03-30T00:21:44.576Z,16.60
2019-03-30T00:22:44.566Z,17.90
2019-03-30T00:23:44.554Z,19.60
2019-03-30T00:24:44.548Z,18.00
2019-03-30T00:25:44.554Z,19.70
2019-03-30T00:26:44.527Z,18.60
2019-03-30T00:27:44.514Z,18.30
2019-03-30T00:28:44.513Z,17.40
2019-03-30T00:29:44.498Z,17.60
2019-03-30T00:30:44.493Z,18.30
2019-03-30T00:31:44.466Z,16.10
2019-03-30T00:32:44.456Z,17.70
2019-03-30T00:33:44.442Z,17.30
2019-03-30T00:34:44.431Z,14.30
2019-03-30T00:35:44.447Z,16.50
2019-03-30T00:36:44.409Z,16.20
2019-03-30T00:37:44.401Z,15.90
2019-03-30T00:38:44.389Z,16.40
2019-03-30T00:39:44.388Z,14.60
2019-03-30T00:40:44.358Z,15.00
2019-03-30T00:41:44.373Z,14.90
2019-03-30T00:42:44.353Z,14.40
2019-03-30T00:43:44.335Z,12.90
2019-03-30T00:44:44.317Z,13.60
2019-03-30T00:45:44.376Z,13.10
2019-03-30T00:46:44.313Z,17.10
2019-03-30T00:47:44.283Z,14.20
2019-03-30T00:48:44.272Z,15.20
2019-03-30T00:49:49.708Z,16.30
2019-03-30T00:50:45.251Z,14.70
2019-03-30T00:51:44.262Z,15.30
2019-03-30T00:52:44.225Z,13.20
2019-03-30T00:53:44.226Z,14.90
2019-03-30T00:54:44.211Z,13.20
2019-03-30T00:55:44.192Z,14.60
2019-03-30T00:56:44.202Z,14.50
2019-03-30T00:57:44.199Z,12.80
2019-03-30T00:58:44.161Z,14.30
2019-03-30T00:59:44.163Z,13.80
2019-03-30T01:00:44.140Z,13.30
2019-03-30T01:01:44.142Z,14.50
2019-03-30T01:02:44.118Z,16.60
2019-03-30T01:03:44.105Z,16.00
2019-03-30T01:04:44.094Z,12.00
2019-03-30T01:05:44.084Z,13.00
2019-03-30T01:06:44.094Z,12.80
2019-03-30T01:07:44.057Z,12.70
2019-03-30T01:08:44.053Z,12.60
2019-03-30T01:09:44.035Z,12.80
2019-03-30T01:10:44.024Z,14.00
2019-03-30T01:11:44.043Z,14.90
2019-03-30T01:12:44.003Z,12.10
2019-03-30T01:13:43.992Z,14.40
2019-03-30T01:14:43.981Z,14.20
2019-03-30T01:15:43.968Z,14.80
2019-03-30T01:16:43.961Z,14.60
2019-03-30T01:17:44.039Z,14.90
2019-03-30T01:18:43.932Z,14.20
2019-03-30T01:19:43.924Z,12.00
2019-03-30T01:20:43.914Z,13.00
2019-03-30T01:21:43.899Z,13.70
2019-03-30T01:22:43.914Z,14.50
2019-03-30T01:23:43.877Z,13.90
2019-03-30T01:24:43.867Z,13.00
2019-03-30T01:25:43.857Z,15.80
2019-03-30T01:26:43.850Z,14.80
2019-03-30T01:27:43.876Z,13.70
2019-03-30T01:28:43.823Z,15.20
2019-03-30T01:29:43.820Z,31.40
2019-03-30T01:30:43.796Z,13.90
2019-03-30T01:31:43.788Z,14.10
2019-03-30T01:32:43.797Z,16.60
2019-03-30T01:33:43.766Z,15.30
2019-03-30T01:34:43.759Z,15.00
2019-03-30T01:35:43.744Z,16.00
2019-03-30T01:36:43.735Z,15.30
2019-03-30T01:37:43.744Z,17.60
2019-03-30T01:38:43.710Z,15.90
2019-03-30T01:39:43.696Z,17.40
2019-03-30T01:40:43.692Z,15.00
2019-03-30T01:41:43.674Z,17.30
2019-03-30T01:42:43.679Z,15.90
2019-03-30T01:43:43.654Z,17.90
2019-03-30T01:44:43.645Z,19.10
2019-03-30T01:45:43.634Z,17.40
2019-03-30T01:46:43.617Z,18.30
2019-03-30T01:47:43.627Z,20.10
2019-03-30T01:48:43.592Z,20.90
2019-03-30T01:49:43.584Z,20.30
2019-03-30T01:50:43.580Z,21.60
2019-03-30T01:51:43.564Z,19.90
2019-03-30T01:52:43.567Z,21.30
2019-03-30T01:53:43.539Z,18.90
2019-03-30T01:54:43.533Z,20.20
2019-03-30T01:55:43.517Z,21.20
2019-03-30T01:56:43.506Z,22.90
2019-03-30T01:57:43.514Z,23.80
2019-03-30T01:58:43.484Z,23.80
2019-03-30T01:59:43.475Z,24.50
2019-03-30T02:00:43.470Z,21.30
2019-03-30T02:01:43.452Z,23.40
2019-03-30T02:02:43.455Z,23.50
2019-03-30T02:03:43.427Z,23.00
2019-03-30T02:04:43.432Z,23.30
2019-03-30T02:05:43.402Z,22.00
2019-03-30T02:06:43.394Z,23.90
2019-03-30T02:07:43.410Z,21.90
2019-03-30T02:08:43.369Z,25.10
2019-03-30T02:09:43.362Z,23.00
2019-03-30T02:10:43.348Z,23.80
2019-03-30T02:11:43.343Z,23.20
2019-03-30T02:12:43.342Z,23.60
2019-03-30T02:13:43.333Z,26.80
2019-03-30T02:14:43.305Z,22.90
2019-03-30T02:15:43.330Z,23.00
2019-03-30T02:16:43.279Z,24.60
2019-03-30T02:17:43.298Z,24.70
2019-03-30T02:18:43.296Z,22.10
2019-03-30T02:19:43.255Z,24.40
2019-03-30T02:20:43.238Z,22.90
2019-03-30T02:21:43.223Z,23.40
2019-03-30T02:22:43.214Z,21.70
2019-03-30T02:23:43.228Z,24.60
2019-03-30T02:24:43.200Z,27.20
2019-03-30T02:25:43.186Z,23.80
2019-03-30T02:26:43.178Z,22.70
2019-03-30T02:27:43.159Z,24.90
2019-03-30T02:28:43.176Z,24.80
2019-03-30T02:29:43.132Z,25.00
2019-03-30T02:30:43.126Z,26.30
2019-03-30T02:31:43.129Z,27.60
2019-03-30T02:32:43.102Z,25.00
2019-03-30T02:33:43.109Z,26.70
2019-03-30T02:34:43.089Z,26.00
2019-03-30T02:35:43.068Z,24.70
2019-03-30T02:36:43.075Z,25.90
2019-03-30T02:37:43.048Z,26.50
2019-03-30T02:38:43.051Z,26.20
2019-03-30T02:39:43.044Z,24.90
2019-03-30T02:40:43.021Z,26.90
2019-03-30T02:41:43.009Z,24.30
2019-03-30T02:42:43.003Z,28.30
2019-03-30T02:43:43.007Z,28.40
2019-03-30T02:44:42.984Z,26.20
2019-03-30T02:45:42.961Z,28.40
2019-03-30T02:46:42.952Z,28.40
2019-03-30T02:47:42.950Z,26.80
2019-03-30T02:48:42.942Z,27.00
2019-03-30T02:49:42.910Z,27.80
2019-03-30T02:50:49.975Z,28.10
2019-03-30T02:51:43.891Z,27.60
2019-03-30T02:52:42.883Z,31.30
2019-03-30T02:53:42.884Z,29.50
2019-03-30T02:54:42.861Z,29.20
2019-03-30T02:55:42.843Z,30.80
2019-03-30T02:56:42.833Z,34.00
2019-03-30T02:57:42.829Z,31.30
2019-03-30T02:58:42.825Z,29.60
2019-03-30T02:59:42.803Z,29.80
2019-03-30T03:00:42.786Z,31.50
2019-03-30T03:01:42.783Z,28.90
2019-03-30T03:02:42.762Z,32.10
2019-03-30T03:03:42.779Z,31.80
2019-03-30T03:04:42.763Z,35.60
2019-03-30T03:05:42.785Z,35.30
2019-03-30T03:06:42.725Z,34.90
2019-03-30T03:07:42.714Z,37.30
2019-03-30T03:08:42.717Z,39.50
2019-03-30T03:09:42.685Z,37.50
2019-03-30T03:10:42.736Z,40.30
2019-03-30T03:11:42.662Z,36.30
2019-03-30T03:12:42.651Z,40.40
2019-03-30T03:13:42.661Z,38.30
2019-03-30T03:14:42.630Z,33.00
2019-03-30T03:15:42.622Z,34.40
2019-03-30T03:16:42.685Z,35.10
2019-03-30T03:17:42.597Z,37.00
2019-03-30T03:18:42.620Z,36.20
2019-03-30T03:19:42.577Z,35.90
2019-03-30T03:20:42.569Z,35.20
2019-03-30T03:21:42.554Z,38.20
2019-03-30T03:22:42.549Z,36.90
2019-03-30T03:23:42.563Z,39.80
2019-03-30T03:24:42.518Z,46.50
2019-03-30T03:25:42.514Z,52.30
2019-03-30T03:26:42.497Z,56.60
2019-03-30T03:27:42.487Z,60.30
2019-03-30T03:28:42.507Z,55.70
2019-03-30T03:29:43.962Z,54.60
2019-03-30T03:30:42.451Z,50.10
2019-03-30T03:31:42.446Z,51.70
2019-03-30T03:32:42.442Z,56.00
2019-03-30T03:33:42.437Z,55.60
2019-03-30T03:34:42.412Z,53.50
2019-03-30T03:35:42.402Z,51.10
2019-03-30T03:36:42.386Z,51.20
2019-03-30T03:37:46.060Z,44.10
2019-03-30T03:38:42.382Z,43.20
2019-03-30T03:39:42.360Z,44.50
2019-03-30T03:40:42.347Z,41.80
2019-03-30T03:41:42.330Z,42.40
2019-03-30T03:42:42.320Z,40.90
2019-03-30T03:43:42.338Z,43.00
2019-03-30T03:44:42.295Z,42.30
2019-03-30T03:45:42.289Z,40.40
2019-03-30T03:46:42.279Z,37.70
2019-03-30T03:47:42.267Z,37.60
2019-03-30T03:48:42.278Z,35.70
2019-03-30T03:49:42.245Z,37.90
2019-03-30T03:50:42.406Z,37.20
2019-03-30T03:51:42.229Z,37.20
2019-03-30T03:52:42.238Z,36.50
2019-03-30T03:53:42.210Z,38.90
2019-03-30T03:54:42.188Z,36.40
2019-03-30T03:55:42.212Z,31.90
2019-03-30T03:56:42.172Z,24.30
2019-03-30T03:57:42.153Z,22.90
2019-03-30T03:58:42.152Z,23.40
2019-03-30T03:59:42.146Z,21.40
2019-03-30T04:00:42.119Z,21.80
2019-03-30T04:01:42.115Z,21.90
2019-03-30T04:02:42.092Z,21.70
2019-03-30T04:03:42.094Z,24.20
2019-03-30T04:04:42.105Z,21.00
2019-03-30T04:05:42.071Z,22.10
2019-03-30T04:06:42.046Z,21.60
2019-03-30T04:07:42.055Z,22.70
2019-03-30T04:08:42.035Z,23.00
2019-03-30T04:09:42.033Z,25.20
2019-03-30T04:10:42.004Z,23.50
2019-03-30T04:11:42.005Z,21.60
2019-03-30T04:12:41.984Z,24.10
2019-03-30T04:13:41.983Z,24.10
2019-03-30T04:14:41.986Z,24.40
2019-03-30T04:15:41.951Z,21.60
2019-03-30T04:16:41.944Z,23.50
2019-03-30T04:17:41.929Z,22.20
2019-03-30T04:18:41.915Z,24.60
2019-03-30T04:19:41.923Z,25.40
2019-03-30T04:20:41.925Z,24.40
2019-03-30T04:21:44.149Z,22.50
2019-03-30T04:22:41.873Z,24.60
2019-03-30T04:23:41.858Z,23.20
2019-03-30T04:24:41.898Z,24.30
2019-03-30T04:25:41.846Z,23.80
2019-03-30T04:26:41.834Z,22.40
2019-03-30T04:27:41.815Z,22.90
2019-03-30T04:28:41.803Z,22.30
2019-03-30T04:29:41.816Z,22.10
2019-03-30T04:30:41.793Z,22.20
2019-03-30T04:31:41.772Z,21.60
2019-03-30T04:32:41.757Z,22.90
2019-03-30T04:33:41.750Z,22.30
2019-03-30T04:34:41.759Z,24.60
2019-03-30T04:35:41.732Z,26.50
2019-03-30T04:36:41.721Z,22.70
2019-03-30T04:37:41.706Z,24.30
2019-03-30T04:38:41.690Z,26.10
2019-03-30T04:39:41.704Z,25.20
2019-03-30T04:40:41.669Z,24.60
2019-03-30T04:41:41.663Z,26.30
2019-03-30T04:42:41.651Z,27.40
2019-03-30T04:43:41.635Z,28.10
2019-03-30T04:44:41.640Z,26.80
2019-03-30T04:45:41.621Z,26.80
2019-03-30T04:46:41.609Z,27.80
2019-03-30T04:47:41.592Z,26.50
2019-03-30T04:48:41.581Z,26.50
2019-03-30T04:49:41.586Z,27.60
2019-03-30T04:50:41.554Z,27.20
2019-03-30T04:51:41.550Z,27.50
2019-03-30T04:52:41.532Z,26.90
2019-03-30T04:53:41.524Z,25.80
2019-03-30T04:54:41.532Z,27.30
2019-03-30T04:55:41.506Z,27.40
2019-03-30T04:56:41.493Z,29.30
2019-03-30T04:57:41.502Z,26.80
2019-03-30T04:58:41.473Z,30.20
2019-03-30T04:59:41.457Z,27.50
2019-03-30T05:00:41.499Z,27.20
2019-03-30T05:01:41.438Z,25.10
2019-03-30T05:02:41.443Z,27.60
2019-03-30T05:03:41.416Z,25.80
2019-03-30T05:04:41.407Z,24.70
2019-03-30T05:05:43.031Z,28.50
2019-03-30T05:06:41.388Z,26.20
2019-03-30T05:07:41.380Z,25.80
2019-03-30T05:08:41.359Z,25.40
2019-03-30T05:09:41.343Z,26.50
2019-03-30T05:10:41.349Z,27.70
2019-03-30T05:11:41.320Z,26.10
2019-03-30T05:12:41.312Z,26.50
2019-03-30T05:13:41.306Z,25.70
2019-03-30T05:14:41.298Z,25.70
2019-03-30T05:15:41.299Z,25.90
2019-03-30T05:16:41.265Z,24.90
2019-03-30T05:17:47.517Z,22.70
2019-03-30T05:18:42.245Z,25.20
2019-03-30T05:19:41.244Z,22.50
2019-03-30T05:20:41.253Z,25.50
2019-03-30T05:21:41.210Z,26.90
2019-03-30T05:22:41.198Z,26.30
2019-03-30T05:23:41.297Z,23.30
2019-03-30T05:24:41.178Z,22.70
2019-03-30T05:25:41.292Z,23.30
2019-03-30T05:26:41.156Z,22.50
2019-03-30T05:27:41.144Z,24.50
2019-03-30T05:28:41.130Z,21.90
2019-03-30T05:29:41.123Z,25.50
2019-03-30T05:30:41.124Z,22.70
2019-03-30T05:31:41.097Z,23.10
2019-03-30T05:32:41.895Z,24.00
2019-03-30T05:33:41.075Z,23.40
2019-03-30T05:34:41.062Z,23.20
2019-03-30T05:35:41.070Z,23.50
2019-03-30T05:36:41.046Z,23.00
2019-03-30T05:37:41.031Z,24.20
2019-03-30T05:38:41.029Z,23.00
2019-03-30T05:39:41.009Z,21.70
2019-03-30T05:40:41.011Z,23.00
2019-03-30T05:41:40.985Z,22.10
2019-03-30T05:42:40.974Z,23.10
2019-03-30T05:43:40.974Z,22.80
2019-03-30T05:44:40.952Z,22.90
2019-03-30T05:45:40.972Z,22.10
2019-03-30T05:46:40.932Z,21.60
2019-03-30T05:47:41.011Z,22.00
2019-03-30T05:48:40.906Z,20.70
2019-03-30T05:49:40.896Z,23.50
2019-03-30T05:50:40.890Z,22.60
2019-03-30T05:51:40.894Z,20.70
2019-03-30T05:52:40.870Z,23.60
2019-03-30T05:53:40.867Z,21.00
2019-03-30T05:54:40.838Z,24.20
2019-03-30T05:55:40.833Z,20.80
2019-03-30T05:56:40.867Z,21.70
2019-03-30T05:57:40.818Z,23.20
2019-03-30T05:58:40.798Z,21.10
2019-03-30T05:59:40.782Z,21.90
2019-03-30T06:00:40.900Z,23.30
2019-03-30T06:01:40.762Z,18.70
2019-03-30T06:02:40.754Z,21.40
2019-03-30T06:03:40.748Z,22.00
2019-03-30T06:04:40.732Z,24.90
2019-03-30T06:05:40.757Z,21.60
2019-03-30T06:06:40.712Z,19.80
2019-03-30T06:07:40.692Z,23.00
2019-03-30T06:08:40.686Z,25.40
2019-03-30T06:09:40.671Z,24.20
2019-03-30T06:10:40.664Z,21.90
2019-03-30T06:11:40.673Z,21.50
2019-03-30T06:12:40.658Z,20.90
2019-03-30T06:13:40.624Z,21.70
2019-03-30T06:14:40.615Z,22.90
2019-03-30T06:15:40.610Z,20.70
2019-03-30T06:16:40.609Z,21.90
2019-03-30T06:17:40.578Z,23.80
2019-03-30T06:18:40.570Z,20.70
2019-03-30T06:19:40.562Z,21.00
2019-03-30T06:20:40.555Z,21.20
2019-03-30T06:21:40.558Z,19.10
2019-03-30T06:22:40.970Z,19.30
2019-03-30T06:23:40.514Z,20.10
2019-03-30T06:24:40.508Z,19.40
2019-03-30T06:25:40.489Z,20.80
2019-03-30T06:26:40.514Z,20.50
2019-03-30T06:27:40.474Z,18.70
2019-03-30T06:28:40.459Z,20.40
2019-03-30T06:29:40.447Z,19.70
2019-03-30T06:30:40.440Z,22.00
2019-03-30T06:31:40.451Z,22.60
2019-03-30T06:32:40.422Z,19.90
2019-03-30T06:33:40.415Z,22.40
2019-03-30T06:34:40.393Z,19.80
2019-03-30T06:35:40.394Z,18.60
2019-03-30T06:36:40.399Z,19.60
2019-03-30T06:37:40.356Z,18.80
2019-03-30T06:38:40.356Z,18.20
2019-03-30T06:39:40.343Z,21.30
2019-03-30T06:40:40.335Z,19.60
2019-03-30T06:41:40.348Z,18.70
2019-03-30T06:42:40.303Z,21.90
2019-03-30T06:43:40.292Z,22.60
2019-03-30T06:44:40.278Z,21.10
2019-03-30T06:45:40.268Z,21.00
2019-03-30T06:46:40.281Z,20.30
2019-03-30T06:47:40.246Z,20.40
2019-03-30T06:48:40.233Z,20.60
2019-03-30T06:49:40.225Z,20.40
2019-03-30T06:50:40.214Z,20.00
2019-03-30T06:51:40.223Z,19.10
2019-03-30T06:52:42.798Z,20.00
2019-03-30T06:53:41.184Z,22.10
2019-03-30T06:54:40.172Z,21.30
2019-03-30T06:55:40.166Z,22.20
2019-03-30T06:56:40.164Z,20.60
2019-03-30T06:57:40.233Z,22.10
2019-03-30T06:58:40.123Z,20.90
2019-03-30T06:59:40.112Z,20.30
2019-03-30T07:00:40.112Z,20.90
2019-03-30T07:01:40.112Z,20.50
2019-03-30T07:02:40.074Z,20.40
2019-03-30T07:03:40.068Z,21.80
2019-03-30T07:04:40.065Z,19.70
2019-03-30T07:05:40.043Z,21.10
2019-03-30T07:06:40.056Z,20.70
2019-03-30T07:07:40.032Z,20.70
2019-03-30T07:08:40.026Z,20.90
2019-03-30T07:09:39.996Z,20.00
2019-03-30T07:10:39.994Z,21.10
2019-03-30T07:11:39.996Z,24.10
2019-03-30T07:12:39.974Z,21.10
2019-03-30T07:13:39.955Z,22.80
2019-03-30T07:14:39.947Z,22.70
2019-03-30T07:15:39.932Z,20.80
2019-03-30T07:16:39.936Z,21.70
2019-03-30T07:17:39.921Z,21.50
2019-03-30T07:18:39.897Z,21.90
2019-03-30T07:19:39.890Z,20.40
2019-03-30T07:20:39.881Z,20.30
2019-03-30T07:21:39.934Z,23.40
2019-03-30T07:22:39.870Z,21.00
2019-03-30T07:23:39.839Z,22.30
2019-03-30T07:24:39.835Z,19.30
2019-03-30T07:25:39.823Z,21.50
2019-03-30T07:26:39.814Z,21.40
2019-03-30T07:27:39.829Z,23.30
2019-03-30T07:28:39.790Z,21.80
2019-03-30T07:29:39.779Z,21.30
2019-03-30T07:30:39.776Z,19.90
2019-03-30T07:31:39.769Z,22.00
2019-03-30T07:32:39.761Z,23.00
2019-03-30T07:33:39.730Z,23.50
2019-03-30T07:34:41.710Z,22.00
2019-03-30T07:35:39.714Z,22.10
2019-03-30T07:36:39.692Z,23.10
2019-03-30T07:37:39.774Z,22.10
2019-03-30T07:38:39.672Z,21.50
2019-03-30T07:39:39.668Z,21.50
2019-03-30T07:40:39.658Z,21.50
2019-03-30T07:41:39.648Z,21.10
2019-03-30T07:42:39.643Z,22.10
2019-03-30T07:43:39.620Z,21.20
2019-03-30T07:44:39.639Z,22.10
2019-03-30T07:45:39.599Z,21.00
2019-03-30T07:46:39.583Z,22.50
2019-03-30T07:47:39.594Z,21.20
2019-03-30T07:48:39.567Z,19.80
2019-03-30T07:49:39.555Z,22.60
2019-03-30T07:50:39.577Z,20.40
2019-03-30T07:51:39.538Z,20.70
2019-03-30T07:52:39.534Z,20.50
2019-03-30T07:53:44.816Z,23.40
2019-03-30T07:54:40.498Z,21.50
2019-03-30T07:55:39.479Z,21.10
2019-03-30T07:56:39.475Z,21.10
2019-03-30T07:57:39.477Z,23.30
2019-03-30T07:58:39.448Z,23.40
2019-03-30T07:59:39.437Z,22.20
2019-03-30T08:00:39.432Z,22.60
2019-03-30T08:01:39.418Z,23.00
2019-03-30T08:02:39.423Z,21.10
2019-03-30T08:03:39.391Z,21.70
2019-03-30T08:04:39.386Z,20.80
2019-03-30T08:05:39.372Z,21.30
2019-03-30T08:06:39.363Z,21.20
2019-03-30T08:07:39.382Z,21.80
2019-03-30T08:08:39.352Z,20.80
2019-03-30T08:09:39.327Z,20.10
2019-03-30T08:10:39.316Z,22.60
2019-03-30T08:11:39.297Z,20.70
2019-03-30T08:12:39.309Z,23.30
2019-03-30T08:13:39.280Z,21.70
2019-03-30T08:14:39.287Z,23.80
2019-03-30T08:15:39.266Z,23.10
2019-03-30T08:16:39.250Z,23.60
2019-03-30T08:17:39.242Z,21.80
2019-03-30T08:18:39.250Z,21.00
2019-03-30T08:19:39.225Z,22.50
2019-03-30T08:20:39.206Z,22.90
2019-03-30T08:21:39.189Z,25.00
2019-03-30T08:22:39.177Z,22.40
2019-03-30T08:23:40.471Z,24.40
2019-03-30T08:24:39.198Z,23.10
2019-03-30T08:25:39.142Z,22.30
2019-03-30T08:26:39.130Z,22.30
2019-03-30T08:27:39.118Z,23.60
2019-03-30T08:28:39.143Z,26.00
2019-03-30T08:29:39.663Z,23.30
2019-03-30T08:30:39.091Z,23.70
2019-03-30T08:31:39.081Z,23.00
2019-03-30T08:32:39.067Z,25.40
2019-03-30T08:33:39.052Z,26.00
2019-03-30T08:34:39.063Z,25.20
2019-03-30T08:35:39.031Z,23.70
2019-03-30T08:36:39.016Z,24.60
2019-03-30T08:37:39.010Z,24.20
2019-03-30T08:38:39.072Z,29.10
2019-03-30T08:39:38.999Z,26.90
2019-03-30T08:40:38.978Z,24.10
2019-03-30T08:41:38.967Z,25.50
2019-03-30T08:42:38.953Z,25.20
2019-03-30T08:43:38.944Z,25.10
2019-03-30T08:44:38.984Z,25.80
2019-03-30T08:45:38.918Z,24.20
2019-03-30T08:46:38.905Z,24.20
2019-03-30T08:47:38.979Z,25.30
2019-03-30T08:48:38.889Z,23.80
2019-03-30T08:49:38.892Z,22.70
2019-03-30T08:50:38.857Z,23.60
2019-03-30T08:51:38.847Z,24.50
2019-03-30T08:52:38.860Z,22.80
2019-03-30T08:53:38.828Z,22.30
2019-03-30T08:54:38.832Z,24.70
2019-03-30T08:55:38.810Z,26.80
2019-03-30T08:56:38.793Z,25.20
2019-03-30T08:57:38.789Z,22.90
2019-03-30T08:58:38.767Z,24.40
2019-03-30T08:59:38.774Z,23.50
2019-03-30T09:00:38.746Z,23.70
2019-03-30T09:01:38.740Z,22.00
2019-03-30T09:02:38.727Z,24.70
2019-03-30T09:03:38.716Z,23.60
2019-03-30T09:04:38.723Z,23.30
2019-03-30T09:05:38.699Z,23.30
2019-03-30T09:06:38.698Z,23.10
2019-03-30T09:07:38.664Z,22.30
2019-03-30T09:08:38.658Z,22.70
2019-03-30T09:09:38.676Z,23.70
2019-03-30T09:10:38.630Z,24.20
2019-03-30T09:11:38.621Z,24.40
2019-03-30T09:12:38.615Z,25.20
2019-03-30T09:13:38.603Z,23.40
2019-03-30T09:14:38.588Z,24.40
2019-03-30T09:15:38.608Z,22.80
2019-03-30T09:16:38.564Z,24.20
2019-03-30T09:17:38.556Z,23.80
2019-03-30T09:18:38.551Z,25.80
2019-03-30T09:19:38.531Z,24.80
2019-03-30T09:20:38.542Z,24.20
2019-03-30T09:21:38.514Z,24.20
2019-03-30T09:22:38.503Z,24.70
2019-03-30T09:23:38.491Z,23.40
2019-03-30T09:24:38.483Z,24.80
2019-03-30T09:25:38.479Z,24.20
2019-03-30T09:26:38.449Z,25.00
2019-03-30T09:27:38.443Z,23.40
2019-03-30T09:28:38.422Z,25.80
2019-03-30T09:29:38.423Z,23.90
2019-03-30T09:30:38.423Z,24.70
2019-03-30T09:31:38.401Z,23.90
2019-03-30T09:32:38.387Z,26.00
2019-03-30T09:33:38.376Z,24.90
2019-03-30T09:34:38.360Z,26.90
2019-03-30T09:35:38.370Z,24.80
2019-03-30T09:36:38.410Z,25.90
2019-03-30T09:37:38.329Z,25.70
2019-03-30T09:38:38.318Z,24.70
2019-03-30T09:39:38.311Z,27.00
2019-03-30T09:40:38.295Z,23.80
2019-03-30T09:41:38.387Z,24.80
2019-03-30T09:42:38.266Z,25.20
2019-03-30T09:43:38.267Z,23.90
2019-03-30T09:44:38.247Z,25.50
2019-03-30T09:45:38.236Z,23.40
2019-03-30T09:46:38.249Z,24.70
2019-03-30T09:47:38.212Z,23.90
2019-03-30T09:48:38.272Z,23.80
2019-03-30T09:49:38.194Z,24.00
2019-03-30T09:50:38.181Z,22.90
2019-03-30T09:51:38.190Z,24.90
2019-03-30T09:52:38.160Z,25.90
2019-03-30T09:53:38.144Z,25.30
2019-03-30T09:54:38.143Z,24.50
2019-03-30T09:55:38.640Z,24.70
2019-03-30T09:56:38.133Z,23.90
2019-03-30T09:57:38.103Z,24.80
2019-03-30T09:58:38.092Z,25.60
2019-03-30T09:59:38.084Z,24.90
2019-03-30T10:00:38.071Z,25.20
2019-03-30T10:01:38.085Z,23.50
2019-03-30T10:02:38.044Z,25.30
2019-03-30T10:03:38.031Z,25.30
2019-03-30T10:04:38.020Z,24.20
2019-03-30T10:05:38.008Z,25.90
2019-03-30T10:06:38.017Z,24.90
2019-03-30T10:07:37.989Z,23.30
2019-03-30T10:08:38.001Z,23.70
2019-03-30T10:09:37.962Z,22.40
2019-03-30T10:10:38.040Z,23.10
2019-03-30T10:11:37.960Z,21.20
2019-03-30T10:12:37.929Z,21.10
2019-03-30T10:13:37.919Z,21.30
2019-03-30T10:14:37.908Z,18.30
2019-03-30T10:15:37.920Z,19.90
2019-03-30T10:16:37.911Z,18.60
2019-03-30T10:17:37.876Z,19.60
2019-03-30T10:18:37.939Z,19.40
2019-03-30T10:19:37.858Z,19.50
2019-03-30T10:20:37.840Z,21.80
2019-03-30T10:21:37.867Z,22.70
2019-03-30T10:22:37.813Z,22.70
2019-03-30T10:23:37.809Z,20.90
2019-03-30T10:24:38.694Z,21.10
2019-03-30T10:25:37.788Z,21.30
2019-03-30T10:26:38.648Z,20.10
2019-03-30T10:27:37.758Z,20.50
2019-03-30T10:28:37.753Z,20.80
2019-03-30T10:29:37.774Z,20.30
2019-03-30T10:30:37.735Z,19.50
2019-03-30T10:31:37.732Z,18.80
2019-03-30T10:32:37.710Z,19.50
2019-03-30T10:33:37.688Z,19.60
2019-03-30T10:34:39.614Z,19.60
2019-03-30T10:35:37.708Z,19.20
2019-03-30T10:36:37.692Z,17.80
2019-03-30T10:37:37.656Z,17.00
2019-03-30T10:38:37.646Z,17.50
2019-03-30T10:39:37.646Z,15.30
2019-03-30T10:40:37.635Z,15.30
2019-03-30T10:41:37.624Z,14.80
2019-03-30T10:42:37.596Z,14.90
2019-03-30T10:43:37.584Z,14.70
2019-03-30T10:44:37.582Z,14.60
2019-03-30T10:45:37.558Z,14.60
2019-03-30T10:46:37.575Z,14.90
2019-03-30T10:47:37.542Z,14.40
2019-03-30T10:48:37.533Z,13.70
2019-03-30T10:49:37.548Z,13.90
2019-03-30T10:51:38.662Z,15.20
2019-03-30T10:52:37.488Z,13.90
2019-03-30T10:53:37.507Z,14.40
2019-03-30T10:54:51.671Z,13.60
2019-03-30T10:55:38.449Z,12.90
2019-03-30T10:56:37.541Z,14.10
2019-03-30T10:57:38.259Z,12.50
2019-03-30T10:58:37.420Z,14.10
2019-03-30T10:59:37.408Z,13.70
2019-03-30T11:00:37.403Z,13.60
2019-03-30T11:01:37.413Z,14.40
2019-03-30T11:02:38.172Z,14.00
2019-03-30T11:03:37.365Z,13.80
2019-03-30T11:04:38.245Z,13.90
2019-03-30T11:05:37.348Z,13.30
2019-03-30T11:06:37.358Z,13.70
2019-03-30T11:07:38.281Z,13.80
2019-03-30T11:09:38.472Z,13.90
2019-03-30T11:10:37.291Z,14.30
2019-03-30T11:11:37.301Z,13.80
2019-03-30T11:12:37.282Z,13.00
2019-03-30T11:13:37.269Z,14.30
2019-03-30T11:14:37.252Z,13.60
2019-03-30T11:15:37.240Z,13.50
2019-03-30T11:16:37.326Z,13.00
2019-03-30T11:17:37.222Z,12.70
2019-03-30T11:18:37.213Z,13.10
2019-03-30T11:19:37.228Z,11.20
2019-03-30T11:20:37.189Z,11.20
2019-03-30T11:21:37.197Z,12.20
2019-03-30T11:22:37.170Z,12.20
2019-03-30T11:23:37.162Z,11.70
2019-03-30T11:24:37.176Z,12.30
2019-03-30T11:25:37.137Z,11.90
2019-03-30T11:26:37.212Z,11.60
2019-03-30T11:27:37.111Z,12.20
2019-03-30T11:28:37.133Z,13.70
2019-03-30T11:29:37.098Z,13.40
2019-03-30T11:30:37.085Z,12.60
2019-03-30T11:31:37.116Z,12.10
2019-03-30T11:32:37.073Z,10.40
2019-03-30T11:33:37.049Z,10.30
2019-03-30T11:34:37.039Z,10.20
2019-03-30T11:35:37.033Z,10.10
2019-03-30T11:36:37.036Z,10.60
2019-03-30T11:37:37.013Z,10.60
2019-03-30T11:38:37.017Z,9.70
2019-03-30T11:39:36.992Z,10.30
2019-03-30T11:40:36.983Z,10.00
2019-03-30T11:41:37.006Z,9.90
2019-03-30T11:42:36.963Z,10.10
2019-03-30T11:43:36.958Z,9.30
2019-03-30T11:44:36.940Z,9.60
2019-03-30T11:45:36.934Z,9.70
2019-03-30T11:46:36.952Z,11.10
2019-03-30T11:47:36.934Z,9.80
2019-03-30T11:48:37.656Z,10.00
2019-03-30T11:49:36.894Z,10.10
2019-03-30T11:50:36.888Z,9.90
2019-03-30T11:51:36.881Z,10.30
2019-03-30T11:52:36.886Z,11.10
2019-03-30T11:53:36.853Z,11.00
2019-03-30T11:54:36.839Z,11.10
2019-03-30T11:55:36.834Z,11.70
2019-03-30T11:56:36.849Z,11.40
2019-03-30T11:57:36.848Z,11.80
2019-03-30T11:58:36.803Z,13.30
2019-03-30T11:59:36.793Z,12.80
2019-03-30T12:00:36.783Z,12.80
2019-03-30T12:01:36.778Z,12.30
2019-03-30T12:02:36.760Z,11.80
2019-03-30T12:03:36.777Z,12.50
2019-03-30T12:04:36.751Z,12.40
2019-03-30T12:05:36.743Z,11.90
2019-03-30T12:06:36.728Z,11.20
2019-03-30T12:07:36.759Z,11.30
2019-03-30T12:08:36.735Z,11.30
2019-03-30T12:09:36.704Z,11.40
2019-03-30T12:10:36.784Z,11.60
2019-03-30T12:11:36.705Z,11.50
2019-03-30T12:12:37.548Z,12.10
2019-03-30T12:13:36.675Z,12.00
2019-03-30T12:14:36.715Z,12.10
2019-03-30T12:15:36.637Z,12.30
2019-03-30T12:16:36.626Z,11.60
2019-03-30T12:17:36.655Z,11.70
2019-03-30T12:18:37.285Z,11.70
2019-03-30T12:19:36.633Z,12.10
2019-03-30T12:20:36.679Z,11.40
2019-03-30T12:21:36.602Z,11.70
2019-03-30T12:22:36.567Z,11.80
2019-03-30T12:23:36.564Z,13.40
2019-03-30T12:24:37.671Z,11.80
2019-03-30T12:25:36.542Z,12.20
2019-03-30T12:26:36.523Z,12.60
2019-03-30T12:27:36.517Z,11.50
2019-03-30T12:28:36.503Z,11.80
2019-03-30T12:29:36.518Z,11.50
2019-03-30T12:30:36.486Z,17.60
2019-03-30T12:31:36.489Z,10.50
2019-03-30T12:32:36.460Z,10.60
2019-03-30T12:33:36.454Z,10.80
2019-03-30T12:34:36.447Z,11.00
2019-03-30T12:35:36.454Z,11.40
2019-03-30T12:36:36.420Z,11.20
2019-03-30T12:37:36.426Z,12.80
2019-03-30T12:38:36.398Z,11.00
2019-03-30T12:39:36.394Z,9.70
2019-03-30T12:40:36.407Z,9.30
2019-03-30T12:41:36.394Z,10.10
2019-03-30T12:42:36.434Z,10.60
2019-03-30T12:43:39.043Z,10.50
2019-03-30T12:44:36.338Z,9.60
2019-03-30T12:45:36.333Z,10.80
2019-03-30T12:46:36.339Z,10.10
2019-03-30T12:47:36.342Z,9.80
2019-03-30T12:48:36.303Z,8.90
2019-03-30T12:49:36.296Z,9.40
2019-03-30T12:50:36.285Z,8.60
2019-03-30T12:51:36.296Z,10.10
2019-03-30T12:52:36.257Z,8.80
2019-03-30T12:53:49.136Z,7.80
2019-03-30T12:54:37.254Z,8.60
2019-03-30T12:55:48.663Z,8.40